sensor_id;sensor_type;location;lat;lon;timestamp;P1;durP1;ratioP1;P2;durP2;ratioP2
42246;SDS011;27913;42.722;23.268;2023-05-14T00:03:46;1.30;;;0.80;;
42246;SDS011;27913;42.722;23.268;2023-05-14T00:06:14;1.30;;;0.63;;
42246;SDS011;27913;42.722;23.268;2023-05-14T00:08:39;3.95;;;1.00;;
42246;SDS011;27913;42.722;23.268;2023-05-14T00:11:04;2.05;;;0.85;;
42246;SDS011;27913;42.722;23.268;2023-05-14T00:13:32;1.00;;;0.63;;
42246;SDS011;27913;42.722;23.268;2023-05-14T00:15:58;2.67;;;1.63;;
42246;SDS011;27913;42.722;23.268;2023-05-14T00:18:24;1.70;;;0.80;;
42246;SDS011;27913;42.722;23.268;2023-05-14T00:20:49;1.90;;;0.95;;
42246;SDS011;27913;42.722;23.268;2023-05-14T00:23:18;1.58;;;0.90;;
42246;SDS011;27913;42.722;23.268;2023-05-14T00:25:47;1.25;;;0.88;;
42246;SDS011;27913;42.722;23.268;2023-05-14T00:28:12;1.80;;;0.98;;
42246;SDS011;27913;42.722;23.268;2023-05-14T00:30:38;1.48;;;0.90;;
42246;SDS011;27913;42.722;23.268;2023-05-14T00:33:04;1.63;;;0.80;;
42246;SDS011;27913;42.722;23.268;2023-05-14T00:35:30;1.98;;;1.33;;
42246;SDS011;27913;42.722;23.268;2023-05-14T00:37:55;3.38;;;1.55;;
42246;SDS011;27913;42.722;23.268;2023-05-14T00:40:23;1.42;;;0.90;;
42246;SDS011;27913;42.722;23.268;2023-05-14T00:42:50;1.15;;;0.73;;
42246;SDS011;27913;42.722;23.268;2023-05-14T00:45:15;2.83;;;1.45;;
42246;SDS011;27913;42.722;23.268;2023-05-14T00:47:41;4.15;;;1.40;;
42246;SDS011;27913;42.722;23.268;2023-05-14T00:50:07;1.08;;;0.65;;
42246;SDS011;27913;42.722;23.268;2023-05-14T00:52:33;1.75;;;1.00;;
42246;SDS011;27913;42.722;23.268;2023-05-14T00:55:00;1.42;;;0.73;;
42246;SDS011;27913;42.722;23.268;2023-05-14T00:57:28;1.33;;;0.75;;
42246;SDS011;27913;42.722;23.268;2023-05-14T00:59:54;2.33;;;0.90;;
42246;SDS011;27913;42.722;23.268;2023-05-14T01:02:20;2.22;;;1.25;;
42246;SDS011;27913;42.722;23.268;2023-05-14T01:04:45;1.13;;;0.77;;
42246;SDS011;27913;42.722;23.268;2023-05-14T01:07:14;1.83;;;1.02;;
42246;SDS011;27913;42.722;23.268;2023-05-14T01:14:54;1.10;;;0.63;;
42246;SDS011;27913;42.722;23.268;2023-05-14T01:17:27;1.98;;;0.85;;
42246;SDS011;27913;42.722;23.268;2023-05-14T01:19:54;0.88;;;0.70;;
42246;SDS011;27913;42.722;23.268;2023-05-14T01:22:20;2.35;;;0.80;;
42246;SDS011;27913;42.722;23.268;2023-05-14T01:24:46;1.58;;;0.85;;
42246;SDS011;27913;42.722;23.268;2023-05-14T01:27:24;1.45;;;0.85;;
42246;SDS011;27913;42.722;23.268;2023-05-14T01:30:02;0.82;;;0.50;;
42246;SDS011;27913;42.722;23.268;2023-05-14T01:32:34;0.93;;;0.65;;
42246;SDS011;27913;42.722;23.268;2023-05-14T01:35:01;0.70;;;0.50;;
42246;SDS011;27913;42.722;23.268;2023-05-14T01:37:27;1.25;;;0.60;;
42246;SDS011;27913;42.722;23.268;2023-05-14T01:39:54;0.88;;;0.60;;
42246;SDS011;27913;42.722;23.268;2023-05-14T01:42:21;1.50;;;0.93;;
42246;SDS011;27913;42.722;23.268;2023-05-14T01:44:47;1.50;;;0.88;;
42246;SDS011;27913;42.722;23.268;2023-05-14T01:47:13;0.55;;;0.47;;
42246;SDS011;27913;42.722;23.268;2023-05-14T01:49:38;1.15;;;0.52;;
42246;SDS011;27913;42.722;23.268;2023-05-14T01:52:05;1.05;;;0.60;;
42246;SDS011;27913;42.722;23.268;2023-05-14T01:54:32;2.10;;;1.00;;
42246;SDS011;27913;42.722;23.268;2023-05-14T01:56:58;1.77;;;1.20;;
42246;SDS011;27913;42.722;23.268;2023-05-14T01:59:24;1.15;;;0.60;;
42246;SDS011;27913;42.722;23.268;2023-05-14T02:01:49;1.52;;;0.75;;
42246;SDS011;27913;42.722;23.268;2023-05-14T02:04:15;1.58;;;0.90;;
42246;SDS011;27913;42.722;23.268;2023-05-14T02:06:40;1.73;;;0.60;;
42246;SDS011;27913;42.722;23.268;2023-05-14T02:09:06;1.83;;;0.50;;
42246;SDS011;27913;42.722;23.268;2023-05-14T02:11:31;1.80;;;0.70;;
42246;SDS011;27913;42.722;23.268;2023-05-14T02:13:57;0.85;;;0.55;;
42246;SDS011;27913;42.722;23.268;2023-05-14T02:16:22;1.27;;;0.63;;
42246;SDS011;27913;42.722;23.268;2023-05-14T02:18:48;1.10;;;0.77;;
42246;SDS011;27913;42.722;23.268;2023-05-14T02:21:13;0.70;;;0.60;;
42246;SDS011;27913;42.722;23.268;2023-05-14T02:23:39;2.08;;;0.52;;
42246;SDS011;27913;42.722;23.268;2023-05-14T02:26:04;0.95;;;0.55;;
42246;SDS011;27913;42.722;23.268;2023-05-14T02:28:30;0.73;;;0.40;;
42246;SDS011;27913;42.722;23.268;2023-05-14T02:30:58;0.77;;;0.65;;
42246;SDS011;27913;42.722;23.268;2023-05-14T02:33:25;1.55;;;0.60;;
42246;SDS011;27913;42.722;23.268;2023-05-14T02:35:51;0.52;;;0.40;;
42246;SDS011;27913;42.722;23.268;2023-05-14T02:38:17;0.75;;;0.60;;
42246;SDS011;27913;42.722;23.268;2023-05-14T02:40:43;5.75;;;0.80;;
42246;SDS011;27913;42.722;23.268;2023-05-14T02:43:08;0.60;;;0.43;;
42246;SDS011;27913;42.722;23.268;2023-05-14T02:45:34;1.15;;;0.60;;
42246;SDS011;27913;42.722;23.268;2023-05-14T02:47:59;1.23;;;0.50;;
42246;SDS011;27913;42.722;23.268;2023-05-14T02:50:25;0.63;;;0.47;;
42246;SDS011;27913;42.722;23.268;2023-05-14T02:52:51;1.33;;;0.77;;
42246;SDS011;27913;42.722;23.268;2023-05-14T02:55:16;0.60;;;0.40;;
42246;SDS011;27913;42.722;23.268;2023-05-14T02:57:42;0.40;;;0.40;;
42246;SDS011;27913;42.722;23.268;2023-05-14T03:00:07;0.90;;;0.68;;
42246;SDS011;27913;42.722;23.268;2023-05-14T03:02:33;0.93;;;0.57;;
42246;SDS011;27913;42.722;23.268;2023-05-14T03:04:59;1.08;;;0.47;;
42246;SDS011;27913;42.722;23.268;2023-05-14T03:07:25;2.20;;;0.93;;
42246;SDS011;27913;42.722;23.268;2023-05-14T03:09:51;1.25;;;0.70;;
42246;SDS011;27913;42.722;23.268;2023-05-14T03:12:16;1.20;;;0.60;;
42246;SDS011;27913;42.722;23.268;2023-05-14T03:14:42;0.93;;;0.52;;
42246;SDS011;27913;42.722;23.268;2023-05-14T03:17:08;1.48;;;1.00;;
42246;SDS011;27913;42.722;23.268;2023-05-14T03:19:34;1.85;;;0.88;;
42246;SDS011;27913;42.722;23.268;2023-05-14T03:22:00;0.73;;;0.57;;
42246;SDS011;27913;42.722;23.268;2023-05-14T03:24:25;0.60;;;0.50;;
42246;SDS011;27913;42.722;23.268;2023-05-14T03:26:51;1.27;;;0.70;;
42246;SDS011;27913;42.722;23.268;2023-05-14T03:29:17;1.10;;;0.68;;
42246;SDS011;27913;42.722;23.268;2023-05-14T03:31:42;1.30;;;0.77;;
42246;SDS011;27913;42.722;23.268;2023-05-14T03:34:08;1.27;;;0.65;;
42246;SDS011;27913;42.722;23.268;2023-05-14T03:36:34;0.50;;;0.40;;
42246;SDS011;27913;42.722;23.268;2023-05-14T03:39:01;1.45;;;0.80;;
42246;SDS011;27913;42.722;23.268;2023-05-14T03:41:27;0.40;;;0.35;;
42246;SDS011;27913;42.722;23.268;2023-05-14T03:43:52;1.15;;;0.43;;
42246;SDS011;27913;42.722;23.268;2023-05-14T03:46:18;0.95;;;0.63;;
42246;SDS011;27913;42.722;23.268;2023-05-14T03:48:44;0.40;;;0.30;;
42246;SDS011;27913;42.722;23.268;2023-05-14T03:51:09;1.83;;;0.90;;
42246;SDS011;27913;42.722;23.268;2023-05-14T03:53:35;2.78;;;0.70;;
42246;SDS011;27913;42.722;23.268;2023-05-14T03:56:00;1.50;;;0.93;;
42246;SDS011;27913;42.722;23.268;2023-05-14T03:58:26;0.73;;;0.55;;
42246;SDS011;27913;42.722;23.268;2023-05-14T04:00:51;1.02;;;0.60;;
42246;SDS011;27913;42.722;23.268;2023-05-14T04:03:17;2.03;;;0.90;;
42246;SDS011;27913;42.722;23.268;2023-05-14T04:05:43;0.73;;;0.50;;
42246;SDS011;27913;42.722;23.268;2023-05-14T04:08:08;1.52;;;1.00;;
42246;SDS011;27913;42.722;23.268;2023-05-14T04:10:34;1.00;;;0.68;;
42246;SDS011;27913;42.722;23.268;2023-05-14T04:13:00;0.80;;;0.70;;
42246;SDS011;27913;42.722;23.268;2023-05-14T04:15:25;2.45;;;1.08;;
42246;SDS011;27913;42.722;23.268;2023-05-14T04:17:51;0.52;;;0.50;;
42246;SDS011;27913;42.722;23.268;2023-05-14T04:20:16;1.27;;;0.80;;
42246;SDS011;27913;42.722;23.268;2023-05-14T04:22:42;0.40;;;0.40;;
42246;SDS011;27913;42.722;23.268;2023-05-14T04:25:07;0.50;;;0.50;;
42246;SDS011;27913;42.722;23.268;2023-05-14T04:27:33;0.95;;;0.63;;
42246;SDS011;27913;42.722;23.268;2023-05-14T04:29:58;1.20;;;0.65;;
42246;SDS011;27913;42.722;23.268;2023-05-14T04:32:24;1.27;;;0.80;;
42246;SDS011;27913;42.722;23.268;2023-05-14T04:34:50;2.88;;;1.35;;
42246;SDS011;27913;42.722;23.268;2023-05-14T04:37:15;2.72;;;1.33;;
42246;SDS011;27913;42.722;23.268;2023-05-14T04:39:41;3.65;;;0.98;;
42246;SDS011;27913;42.722;23.268;2023-05-14T04:42:06;8.18;;;1.17;;
42246;SDS011;27913;42.722;23.268;2023-05-14T04:44:35;3.58;;;1.30;;
42246;SDS011;27913;42.722;23.268;2023-05-14T04:47:01;0.90;;;0.60;;
42246;SDS011;27913;42.722;23.268;2023-05-14T04:49:27;1.13;;;0.60;;
42246;SDS011;27913;42.722;23.268;2023-05-14T04:51:53;1.00;;;0.60;;
42246;SDS011;27913;42.722;23.268;2023-05-14T04:54:18;1.80;;;0.70;;
42246;SDS011;27913;42.722;23.268;2023-05-14T04:56:44;1.88;;;0.85;;
42246;SDS011;27913;42.722;23.268;2023-05-14T04:59:10;1.45;;;0.70;;
42246;SDS011;27913;42.722;23.268;2023-05-14T05:01:35;0.90;;;0.68;;
42246;SDS011;27913;42.722;23.268;2023-05-14T05:04:01;3.70;;;1.27;;
42246;SDS011;27913;42.722;23.268;2023-05-14T05:06:26;1.77;;;0.93;;
42246;SDS011;27913;42.722;23.268;2023-05-14T05:08:51;1.65;;;0.80;;
42246;SDS011;27913;42.722;23.268;2023-05-14T05:11:17;2.08;;;1.20;;
42246;SDS011;27913;42.722;23.268;2023-05-14T05:13:42;3.53;;;2.03;;
42246;SDS011;27913;42.722;23.268;2023-05-14T05:16:08;5.30;;;1.92;;
42246;SDS011;27913;42.722;23.268;2023-05-14T05:18:33;4.63;;;1.42;;
42246;SDS011;27913;42.722;23.268;2023-05-14T05:20:59;1.50;;;0.85;;
42246;SDS011;27913;42.722;23.268;2023-05-14T05:23:25;1.25;;;0.73;;
42246;SDS011;27913;42.722;23.268;2023-05-14T05:25:50;3.20;;;1.15;;
42246;SDS011;27913;42.722;23.268;2023-05-14T05:28:16;2.50;;;1.00;;
42246;SDS011;27913;42.722;23.268;2023-05-14T05:30:41;1.20;;;0.70;;
42246;SDS011;27913;42.722;23.268;2023-05-14T05:33:09;1.65;;;0.90;;
42246;SDS011;27913;42.722;23.268;2023-05-14T05:35:35;1.73;;;0.77;;
42246;SDS011;27913;42.722;23.268;2023-05-14T05:38:01;2.00;;;1.08;;
42246;SDS011;27913;42.722;23.268;2023-05-14T05:40:26;3.90;;;1.60;;
42246;SDS011;27913;42.722;23.268;2023-05-14T05:42:52;2.97;;;1.20;;
42246;SDS011;27913;42.722;23.268;2023-05-14T05:45:17;2.28;;;1.17;;
42246;SDS011;27913;42.722;23.268;2023-05-14T05:47:43;1.35;;;0.93;;
42246;SDS011;27913;42.722;23.268;2023-05-14T05:50:08;1.55;;;1.02;;
42246;SDS011;27913;42.722;23.268;2023-05-14T05:52:35;1.60;;;0.95;;
42246;SDS011;27913;42.722;23.268;2023-05-14T05:55:00;6.13;;;1.60;;
42246;SDS011;27913;42.722;23.268;2023-05-14T05:57:26;11.90;;;1.50;;
42246;SDS011;27913;42.722;23.268;2023-05-14T05:59:52;1.75;;;0.70;;
42246;SDS011;27913;42.722;23.268;2023-05-14T06:02:18;3.35;;;1.83;;
42246;SDS011;27913;42.722;23.268;2023-05-14T06:04:43;3.42;;;1.20;;
42246;SDS011;27913;42.722;23.268;2023-05-14T06:07:09;5.97;;;2.25;;
42246;SDS011;27913;42.722;23.268;2023-05-14T06:09:34;3.42;;;1.92;;
42246;SDS011;27913;42.722;23.268;2023-05-14T06:12:00;4.88;;;2.30;;
42246;SDS011;27913;42.722;23.268;2023-05-14T06:14:25;2.22;;;1.42;;
42246;SDS011;27913;42.722;23.268;2023-05-14T06:16:50;1.92;;;1.25;;
42246;SDS011;27913;42.722;23.268;2023-05-14T06:19:16;3.00;;;1.70;;
42246;SDS011;27913;42.722;23.268;2023-05-14T06:21:42;3.25;;;1.65;;
42246;SDS011;27913;42.722;23.268;2023-05-14T06:24:07;4.68;;;1.20;;
42246;SDS011;27913;42.722;23.268;2023-05-14T06:26:33;2.30;;;1.58;;
42246;SDS011;27913;42.722;23.268;2023-05-14T06:28:58;2.42;;;1.55;;
42246;SDS011;27913;42.722;23.268;2023-05-14T06:31:23;2.65;;;1.15;;
42246;SDS011;27913;42.722;23.268;2023-05-14T06:33:49;1.67;;;1.00;;
42246;SDS011;27913;42.722;23.268;2023-05-14T06:36:14;3.20;;;1.70;;
42246;SDS011;27913;42.722;23.268;2023-05-14T06:38:40;2.22;;;1.38;;
42246;SDS011;27913;42.722;23.268;2023-05-14T06:41:05;1.92;;;1.25;;
42246;SDS011;27913;42.722;23.268;2023-05-14T06:43:31;5.50;;;2.80;;
42246;SDS011;27913;42.722;23.268;2023-05-14T06:45:56;2.67;;;1.50;;
42246;SDS011;27913;42.722;23.268;2023-05-14T06:48:22;5.10;;;2.03;;
42246;SDS011;27913;42.722;23.268;2023-05-14T06:50:48;5.35;;;1.95;;
42246;SDS011;27913;42.722;23.268;2023-05-14T06:53:13;3.83;;;2.00;;
42246;SDS011;27913;42.722;23.268;2023-05-14T06:55:40;4.13;;;2.13;;
42246;SDS011;27913;42.722;23.268;2023-05-14T06:58:06;5.57;;;2.10;;
42246;SDS011;27913;42.722;23.268;2023-05-14T07:00:32;2.33;;;1.13;;
42246;SDS011;27913;42.722;23.268;2023-05-14T07:02:57;1.15;;;0.80;;
42246;SDS011;27913;42.722;23.268;2023-05-14T07:05:23;2.25;;;1.20;;
42246;SDS011;27913;42.722;23.268;2023-05-14T07:07:49;2.38;;;1.17;;
42246;SDS011;27913;42.722;23.268;2023-05-14T07:10:15;2.17;;;1.38;;
42246;SDS011;27913;42.722;23.268;2023-05-14T07:12:40;2.78;;;1.77;;
42246;SDS011;27913;42.722;23.268;2023-05-14T07:15:06;3.85;;;2.17;;
42246;SDS011;27913;42.722;23.268;2023-05-14T07:17:32;1.85;;;1.20;;
42246;SDS011;27913;42.722;23.268;2023-05-14T07:19:58;2.05;;;1.33;;
42246;SDS011;27913;42.722;23.268;2023-05-14T07:22:23;3.70;;;1.98;;
42246;SDS011;27913;42.722;23.268;2023-05-14T07:24:49;2.63;;;1.70;;
42246;SDS011;27913;42.722;23.268;2023-05-14T07:27:14;3.50;;;1.90;;
42246;SDS011;27913;42.722;23.268;2023-05-14T07:29:41;4.82;;;2.58;;
42246;SDS011;27913;42.722;23.268;2023-05-14T07:32:07;3.20;;;1.80;;
42246;SDS011;27913;42.722;23.268;2023-05-14T07:34:33;3.50;;;1.73;;
42246;SDS011;27913;42.722;23.268;2023-05-14T07:36:58;3.85;;;2.35;;
42246;SDS011;27913;42.722;23.268;2023-05-14T07:39:24;5.35;;;2.92;;
42246;SDS011;27913;42.722;23.268;2023-05-14T07:41:49;4.25;;;2.20;;
42246;SDS011;27913;42.722;23.268;2023-05-14T07:44:15;2.92;;;1.67;;
42246;SDS011;27913;42.722;23.268;2023-05-14T07:46:41;4.35;;;2.13;;
42246;SDS011;27913;42.722;23.268;2023-05-14T07:49:06;2.03;;;1.45;;
42246;SDS011;27913;42.722;23.268;2023-05-14T07:51:32;5.80;;;1.85;;
42246;SDS011;27913;42.722;23.268;2023-05-14T07:54:00;3.67;;;1.85;;
42246;SDS011;27913;42.722;23.268;2023-05-14T07:56:25;2.30;;;1.35;;
42246;SDS011;27913;42.722;23.268;2023-05-14T07:58:51;3.42;;;2.10;;
42246;SDS011;27913;42.722;23.268;2023-05-14T08:01:17;3.50;;;2.03;;
42246;SDS011;27913;42.722;23.268;2023-05-14T08:03:42;3.30;;;1.77;;
42246;SDS011;27913;42.722;23.268;2023-05-14T08:06:07;3.05;;;1.98;;
42246;SDS011;27913;42.722;23.268;2023-05-14T08:08:33;2.42;;;1.58;;
42246;SDS011;27913;42.722;23.268;2023-05-14T08:10:58;4.07;;;2.10;;
42246;SDS011;27913;42.722;23.268;2023-05-14T08:13:24;2.28;;;1.35;;
42246;SDS011;27913;42.722;23.268;2023-05-14T08:15:50;4.70;;;2.22;;
42246;SDS011;27913;42.722;23.268;2023-05-14T08:18:16;4.35;;;2.17;;
42246;SDS011;27913;42.722;23.268;2023-05-14T08:20:41;3.30;;;1.55;;
42246;SDS011;27913;42.722;23.268;2023-05-14T08:23:07;4.40;;;2.70;;
42246;SDS011;27913;42.722;23.268;2023-05-14T08:25:33;3.08;;;1.83;;
42246;SDS011;27913;42.722;23.268;2023-05-14T08:27:58;4.70;;;2.30;;
42246;SDS011;27913;42.722;23.268;2023-05-14T08:30:25;3.53;;;1.92;;
42246;SDS011;27913;42.722;23.268;2023-05-14T08:32:50;1.90;;;1.20;;
42246;SDS011;27913;42.722;23.268;2023-05-14T08:35:16;2.50;;;1.48;;
42246;SDS011;27913;42.722;23.268;2023-05-14T08:37:42;3.47;;;2.08;;
42246;SDS011;27913;42.722;23.268;2023-05-14T08:40:09;5.82;;;2.67;;
42246;SDS011;27913;42.722;23.268;2023-05-14T08:42:34;2.47;;;1.60;;
42246;SDS011;27913;42.722;23.268;2023-05-14T08:45:04;3.97;;;2.17;;
42246;SDS011;27913;42.722;23.268;2023-05-14T08:47:37;4.85;;;1.77;;
42246;SDS011;27913;42.722;23.268;2023-05-14T08:50:04;2.80;;;1.65;;
42246;SDS011;27913;42.722;23.268;2023-05-14T08:52:34;2.90;;;1.67;;
42246;SDS011;27913;42.722;23.268;2023-05-14T08:55:02;3.55;;;1.90;;
42246;SDS011;27913;42.722;23.268;2023-05-14T08:57:29;4.30;;;2.15;;
42246;SDS011;27913;42.722;23.268;2023-05-14T08:59:56;2.95;;;1.67;;
42246;SDS011;27913;42.722;23.268;2023-05-14T09:02:23;7.28;;;2.42;;
42246;SDS011;27913;42.722;23.268;2023-05-14T09:04:53;2.85;;;1.77;;
42246;SDS011;27913;42.722;23.268;2023-05-14T09:07:20;3.35;;;1.83;;
42246;SDS011;27913;42.722;23.268;2023-05-14T09:09:46;8.30;;;2.22;;
42246;SDS011;27913;42.722;23.268;2023-05-14T09:12:12;3.60;;;2.10;;
42246;SDS011;27913;42.722;23.268;2023-05-14T09:14:38;2.80;;;1.75;;
42246;SDS011;27913;42.722;23.268;2023-05-14T09:17:03;4.00;;;2.42;;
42246;SDS011;27913;42.722;23.268;2023-05-14T09:19:29;6.82;;;2.17;;
42246;SDS011;27913;42.722;23.268;2023-05-14T09:21:57;4.05;;;2.33;;
42246;SDS011;27913;42.722;23.268;2023-05-14T09:24:24;13.30;;;2.30;;
42246;SDS011;27913;42.722;23.268;2023-05-14T09:26:55;2.67;;;1.52;;
42246;SDS011;27913;42.722;23.268;2023-05-14T09:29:27;4.30;;;1.90;;
42246;SDS011;27913;42.722;23.268;2023-05-14T09:31:53;2.70;;;1.70;;
42246;SDS011;27913;42.722;23.268;2023-05-14T09:34:24;3.13;;;1.63;;
42246;SDS011;27913;42.722;23.268;2023-05-14T09:37:00;3.28;;;1.90;;
42246;SDS011;27913;42.722;23.268;2023-05-14T09:39:27;2.55;;;1.77;;
42246;SDS011;27913;42.722;23.268;2023-05-14T09:41:54;6.07;;;1.55;;
42246;SDS011;27913;42.722;23.268;2023-05-14T09:44:20;2.58;;;1.83;;
42246;SDS011;27913;42.722;23.268;2023-05-14T09:46:46;3.53;;;2.28;;
42246;SDS011;27913;42.722;23.268;2023-05-14T09:49:12;3.90;;;2.08;;
42246;SDS011;27913;42.722;23.268;2023-05-14T09:51:38;2.42;;;1.52;;
42246;SDS011;27913;42.722;23.268;2023-05-14T09:54:04;3.55;;;1.95;;
42246;SDS011;27913;42.722;23.268;2023-05-14T09:56:34;2.35;;;1.60;;
42246;SDS011;27913;42.722;23.268;2023-05-14T09:59:01;2.53;;;1.63;;
42246;SDS011;27913;42.722;23.268;2023-05-14T10:01:28;2.97;;;1.63;;
42246;SDS011;27913;42.722;23.268;2023-05-14T10:03:54;2.70;;;1.70;;
42246;SDS011;27913;42.722;23.268;2023-05-14T10:06:27;2.28;;;1.50;;
42246;SDS011;27913;42.722;23.268;2023-05-14T10:08:59;2.42;;;1.40;;
42246;SDS011;27913;42.722;23.268;2023-05-14T10:11:27;3.40;;;1.90;;
42246;SDS011;27913;42.722;23.268;2023-05-14T10:16:33;2.75;;;1.80;;
42246;SDS011;27913;42.722;23.268;2023-05-14T10:19:09;3.47;;;2.10;;
42246;SDS011;27913;42.722;23.268;2023-05-14T10:21:36;2.88;;;1.80;;
42246;SDS011;27913;42.722;23.268;2023-05-14T10:24:03;3.00;;;1.88;;
42246;SDS011;27913;42.722;23.268;2023-05-14T10:26:30;3.33;;;1.67;;
42246;SDS011;27913;42.722;23.268;2023-05-14T10:28:57;7.18;;;1.63;;
42246;SDS011;27913;42.722;23.268;2023-05-14T10:31:44;2.55;;;1.83;;
42246;SDS011;27913;42.722;23.268;2023-05-14T10:34:29;2.60;;;1.58;;
42246;SDS011;27913;42.722;23.268;2023-05-14T10:37:15;3.33;;;2.05;;
42246;SDS011;27913;42.722;23.268;2023-05-14T10:39:42;2.70;;;1.60;;
42246;SDS011;27913;42.722;23.268;2023-05-14T10:42:10;4.28;;;2.33;;
42246;SDS011;27913;42.722;23.268;2023-05-14T10:44:39;3.83;;;2.47;;
42246;SDS011;27913;42.722;23.268;2023-05-14T10:47:18;5.05;;;2.80;;
42246;SDS011;27913;42.722;23.268;2023-05-14T10:49:45;3.80;;;1.88;;
42246;SDS011;27913;42.722;23.268;2023-05-14T10:52:17;3.42;;;2.20;;
42246;SDS011;27913;42.722;23.268;2023-05-14T10:55:04;4.75;;;2.20;;
42246;SDS011;27913;42.722;23.268;2023-05-14T10:57:36;4.15;;;2.05;;
42246;SDS011;27913;42.722;23.268;2023-05-14T11:00:02;2.50;;;1.40;;
42246;SDS011;27913;42.722;23.268;2023-05-14T11:05:00;2.90;;;1.80;;
42246;SDS011;27913;42.722;23.268;2023-05-14T11:07:29;4.60;;;2.45;;
42246;SDS011;27913;42.722;23.268;2023-05-14T11:09:59;3.40;;;1.90;;
42246;SDS011;27913;42.722;23.268;2023-05-14T11:12:43;3.60;;;1.98;;
42246;SDS011;27913;42.722;23.268;2023-05-14T11:15:11;3.03;;;1.92;;
42246;SDS011;27913;42.722;23.268;2023-05-14T11:17:41;2.85;;;1.65;;
42246;SDS011;27913;42.722;23.268;2023-05-14T11:20:08;3.35;;;1.90;;
42246;SDS011;27913;42.722;23.268;2023-05-14T11:22:35;3.55;;;1.98;;
42246;SDS011;27913;42.722;23.268;2023-05-14T11:25:01;5.50;;;2.42;;
42246;SDS011;27913;42.722;23.268;2023-05-14T11:27:28;3.08;;;1.85;;
42246;SDS011;27913;42.722;23.268;2023-05-14T11:29:54;5.25;;;2.25;;
42246;SDS011;27913;42.722;23.268;2023-05-14T11:32:24;2.60;;;1.60;;
42246;SDS011;27913;42.722;23.268;2023-05-14T11:34:50;2.60;;;1.83;;
42246;SDS011;27913;42.722;23.268;2023-05-14T11:37:16;3.20;;;2.15;;
42246;SDS011;27913;42.722;23.268;2023-05-14T11:39:45;3.55;;;2.35;;
42246;SDS011;27913;42.722;23.268;2023-05-14T11:42:17;3.05;;;1.80;;
42246;SDS011;27913;42.722;23.268;2023-05-14T11:44:47;2.20;;;1.40;;
42246;SDS011;27913;42.722;23.268;2023-05-14T11:47:16;2.85;;;1.80;;
42246;SDS011;27913;42.722;23.268;2023-05-14T11:49:42;3.22;;;1.83;;
42246;SDS011;27913;42.722;23.268;2023-05-14T11:52:09;2.08;;;1.45;;
42246;SDS011;27913;42.722;23.268;2023-05-14T11:54:36;2.55;;;1.90;;
42246;SDS011;27913;42.722;23.268;2023-05-14T11:57:06;4.07;;;1.60;;
42246;SDS011;27913;42.722;23.268;2023-05-14T11:59:34;3.67;;;2.13;;
42246;SDS011;27913;42.722;23.268;2023-05-14T12:02:00;2.70;;;1.83;;
42246;SDS011;27913;42.722;23.268;2023-05-14T12:04:27;2.88;;;2.00;;
42246;SDS011;27913;42.722;23.268;2023-05-14T12:06:53;5.03;;;2.72;;
42246;SDS011;27913;42.722;23.268;2023-05-14T12:09:19;4.00;;;2.13;;
42246;SDS011;27913;42.722;23.268;2023-05-14T12:11:46;3.65;;;2.22;;
42246;SDS011;27913;42.722;23.268;2023-05-14T12:14:14;2.75;;;1.67;;
42246;SDS011;27913;42.722;23.268;2023-05-14T12:16:42;3.55;;;2.28;;
42246;SDS011;27913;42.722;23.268;2023-05-14T12:19:09;7.85;;;2.33;;
42246;SDS011;27913;42.722;23.268;2023-05-14T12:21:37;2.45;;;1.77;;
42246;SDS011;27913;42.722;23.268;2023-05-14T12:24:04;5.55;;;2.85;;
42246;SDS011;27913;42.722;23.268;2023-05-14T12:26:34;5.10;;;2.70;;
42246;SDS011;27913;42.722;23.268;2023-05-14T12:29:00;4.93;;;2.75;;
42246;SDS011;27913;42.722;23.268;2023-05-14T12:31:30;4.15;;;2.03;;
42246;SDS011;27913;42.722;23.268;2023-05-14T12:33:57;4.03;;;2.70;;
42246;SDS011;27913;42.722;23.268;2023-05-14T12:36:23;2.40;;;1.75;;
42246;SDS011;27913;42.722;23.268;2023-05-14T12:38:49;3.83;;;2.25;;
42246;SDS011;27913;42.722;23.268;2023-05-14T12:41:15;2.75;;;1.88;;
42246;SDS011;27913;42.722;23.268;2023-05-14T12:43:42;4.30;;;2.13;;
42246;SDS011;27913;42.722;23.268;2023-05-14T12:46:08;3.55;;;2.20;;
42246;SDS011;27913;42.722;23.268;2023-05-14T12:48:33;4.18;;;2.50;;
42246;SDS011;27913;42.722;23.268;2023-05-14T12:51:01;4.50;;;2.72;;
42246;SDS011;27913;42.722;23.268;2023-05-14T12:53:29;4.65;;;2.92;;
42246;SDS011;27913;42.722;23.268;2023-05-14T12:55:55;4.07;;;2.85;;
42246;SDS011;27913;42.722;23.268;2023-05-14T12:58:21;6.03;;;2.50;;
42246;SDS011;27913;42.722;23.268;2023-05-14T13:00:46;4.68;;;3.13;;
42246;SDS011;27913;42.722;23.268;2023-05-14T13:03:12;3.88;;;2.85;;
42246;SDS011;27913;42.722;23.268;2023-05-14T13:05:37;4.35;;;2.78;;
42246;SDS011;27913;42.722;23.268;2023-05-14T13:08:03;2.85;;;1.90;;
42246;SDS011;27913;42.722;23.268;2023-05-14T13:10:29;5.95;;;3.08;;
42246;SDS011;27913;42.722;23.268;2023-05-14T13:12:56;4.57;;;3.15;;
42246;SDS011;27913;42.722;23.268;2023-05-14T13:15:22;3.95;;;2.35;;
42246;SDS011;27913;42.722;23.268;2023-05-14T13:17:47;5.00;;;3.20;;
42246;SDS011;27913;42.722;23.268;2023-05-14T13:20:13;3.75;;;2.45;;
42246;SDS011;27913;42.722;23.268;2023-05-14T13:22:41;5.18;;;2.45;;
42246;SDS011;27913;42.722;23.268;2023-05-14T13:25:07;5.85;;;3.47;;
42246;SDS011;27913;42.722;23.268;2023-05-14T13:27:34;11.95;;;9.45;;
42246;SDS011;27913;42.722;23.268;2023-05-14T13:30:00;15.88;;;12.57;;
42246;SDS011;27913;42.722;23.268;2023-05-14T13:32:25;7.75;;;5.25;;
42246;SDS011;27913;42.722;23.268;2023-05-14T13:34:51;5.22;;;3.50;;
42246;SDS011;27913;42.722;23.268;2023-05-14T13:37:16;4.45;;;2.78;;
42246;SDS011;27913;42.722;23.268;2023-05-14T13:39:42;5.72;;;3.10;;
42246;SDS011;27913;42.722;23.268;2023-05-14T13:42:07;6.50;;;3.42;;
42246;SDS011;27913;42.722;23.268;2023-05-14T13:44:33;6.90;;;3.20;;
42246;SDS011;27913;42.722;23.268;2023-05-14T13:47:00;5.07;;;3.15;;
42246;SDS011;27913;42.722;23.268;2023-05-14T13:49:26;5.05;;;2.67;;
42246;SDS011;27913;42.722;23.268;2023-05-14T13:51:51;6.45;;;3.38;;
42246;SDS011;27913;42.722;23.268;2023-05-14T13:54:16;4.32;;;2.83;;
42246;SDS011;27913;42.722;23.268;2023-05-14T13:56:42;3.72;;;2.38;;
42246;SDS011;27913;42.722;23.268;2023-05-14T13:59:07;3.70;;;2.33;;
42246;SDS011;27913;42.722;23.268;2023-05-14T14:01:33;6.03;;;3.17;;
42246;SDS011;27913;42.722;23.268;2023-05-14T14:03:58;3.47;;;2.45;;
42246;SDS011;27913;42.722;23.268;2023-05-14T14:06:24;4.40;;;2.80;;
42246;SDS011;27913;42.722;23.268;2023-05-14T14:08:53;4.72;;;3.10;;
42246;SDS011;27913;42.722;23.268;2023-05-14T14:11:19;6.55;;;4.13;;
42246;SDS011;27913;42.722;23.268;2023-05-14T14:13:44;6.60;;;3.65;;
42246;SDS011;27913;42.722;23.268;2023-05-14T14:16:10;4.68;;;3.15;;
42246;SDS011;27913;42.722;23.268;2023-05-14T14:18:36;5.75;;;3.67;;
42246;SDS011;27913;42.722;23.268;2023-05-14T14:21:02;6.63;;;4.75;;
42246;SDS011;27913;42.722;23.268;2023-05-14T14:23:27;6.88;;;4.00;;
42246;SDS011;27913;42.722;23.268;2023-05-14T14:25:53;4.30;;;3.10;;
42246;SDS011;27913;42.722;23.268;2023-05-14T14:28:18;6.20;;;3.67;;
42246;SDS011;27913;42.722;23.268;2023-05-14T14:30:44;7.93;;;3.28;;
42246;SDS011;27913;42.722;23.268;2023-05-14T14:33:09;7.35;;;4.07;;
42246;SDS011;27913;42.722;23.268;2023-05-14T14:35:35;4.30;;;2.88;;
42246;SDS011;27913;42.722;23.268;2023-05-14T14:38:01;5.13;;;3.80;;
42246;SDS011;27913;42.722;23.268;2023-05-14T14:40:27;7.97;;;4.35;;
42246;SDS011;27913;42.722;23.268;2023-05-14T14:42:53;6.65;;;3.28;;